Time;durP1;ratioP1;P1;durP2;ratioP2;P2;SDS_P1;SDS_P2;PMS_P1;PMS_P2;Temp;Humidity;BMP_temperature;BMP_pressure;BME280_temperature;BME280_humidity;BME280_pressure;Samples;Min_cycle;Max_cycle;Signal;HPM_P1;HPM_P2
2022/11/29 00:01:13;;;;;;;;;;;8.90;99.90;;;;;;5156733;27;19912;-41
2022/11/29 00:03:39;;;;;;;;;;;8.90;99.90;;;;;;5155764;27;19907;-40
2022/11/29 00:06:09;;;;;;;;;;;8.90;99.90;;;;;;5156553;27;20036;-40
2022/11/29 00:08:35;;;;;;;;;;;8.90;99.90;;;;;;5156156;27;19911;-41
2022/11/29 00:11:04;;;;;;;;;;;8.90;99.90;;;;;;5154121;27;20371;-41
2022/11/29 00:13:30;;;;;;;;;;;8.90;99.90;;;;;;5156115;27;20397;-42
2022/11/29 00:15:59;;;;;;;;;;;8.90;99.90;;;;;;5155570;27;19908;-42
2022/11/29 00:18:25;;;;;;;;;;;8.90;99.90;;;;;;5156268;27;19915;-41
2022/11/29 00:20:50;;;;;;;;;;;8.90;99.90;;;;;;5156269;27;19915;-41
2022/11/29 00:23:16;;;;;;;;;;;8.90;99.90;;;;;;5155554;27;19918;-40
2022/11/29 00:25:41;;;;;;;;;;;8.90;99.90;;;;;;5156146;27;19911;-42
2022/11/29 00:28:07;;;;;;;;;;;8.90;99.90;;;;;;5156199;27;19911;-40
2022/11/29 00:30:32;;;;;;;;;;;8.90;99.90;;;;;;5155458;27;20285;-41
2022/11/29 00:32:57;;;;;;;;;;;8.90;99.90;;;;;;5155641;27;20005;-42
2022/11/29 00:35:23;;;;;;;;;;;8.90;99.90;;;;;;5155888;27;19918;-41
2022/11/29 00:37:48;;;;;;;;;;;8.90;99.90;;;;;;5155043;27;19915;-44
2022/11/29 00:40:14;;;;;;;;;;;8.90;99.90;;;;;;5155905;27;19929;-42
2022/11/29 00:42:39;;;;;;;;;;;8.90;99.90;;;;;;5155429;27;19912;-40
2022/11/29 00:45:05;;;;;;;;;;;8.90;99.90;;;;;;5155064;27;19914;-41
2022/11/29 00:47:31;;;;;;;;;;;8.90;99.90;;;;;;5155694;27;19907;-42
2022/11/29 00:49:56;;;;;;;;;;;8.90;99.90;;;;;;5155512;27;19966;-42
2022/11/29 00:52:21;;;;;;;;;;;8.80;99.90;;;;;;5154577;27;19919;-41
2022/11/29 00:54:47;;;;;;;;;;;8.80;99.90;;;;;;5155331;27;19914;-41
2022/11/29 00:57:12;;;;;;;;;;;8.90;99.90;;;;;;5155430;27;19922;-41
2022/11/29 00:59:38;;;;;;;;;;;8.80;99.90;;;;;;5154724;27;19911;-42
2022/11/29 01:02:03;;;;;;;;;;;8.80;99.90;;;;;;5155069;27;19911;-41
2022/11/29 01:04:29;;;;;;;;;;;8.80;99.90;;;;;;5155497;27;19907;-41
2022/11/29 01:06:54;;;;;;;;;;;8.80;99.90;;;;;;5154474;27;20399;-41
2022/11/29 01:09:20;;;;;;;;;;;8.80;99.90;;;;;;5155077;27;19907;-42
2022/11/29 01:11:47;;;;;;;;;;;8.80;99.90;;;;;;5154869;27;20322;-42
2022/11/29 01:14:13;;;;;;;;;;;8.80;99.90;;;;;;5154483;27;19914;-42
2022/11/29 01:16:38;;;;;;;;;;;8.80;99.90;;;;;;5155133;27;19911;-43
2022/11/29 01:19:06;;;;;;;;;;;8.80;99.90;;;;;;5155151;27;19975;-42
2022/11/29 01:21:31;;;;;;;;;;;8.80;99.90;;;;;;5154435;27;19957;-41
2022/11/29 01:23:58;;;;;;;;;;;8.80;99.90;;;;;;5154598;27;20277;-40
2022/11/29 01:26:24;;;;;;;;;;;8.80;99.90;;;;;;5154118;27;19956;-42
2022/11/29 01:28:51;;;;;;;;;;;8.80;99.90;;;;;;5154896;27;19914;-41
2022/11/29 01:31:21;;;;;;;;;;;8.80;99.90;;;;;;5154491;27;19959;-42
2022/11/29 01:33:46;;;;;;;;;;;8.80;99.90;;;;;;5153825;27;19926;-42
2022/11/29 01:36:13;;;;;;;;;;;8.80;99.90;;;;;;5154798;27;19955;-41
2022/11/29 01:38:39;;;;;;;;;;;8.80;99.90;;;;;;5154897;27;20027;-42
2022/11/29 01:41:10;;;;;;;;;;;8.80;99.90;;;;;;5154085;27;20013;-41
2022/11/29 01:43:57;;;;;;;;;;;8.80;99.90;;;;;;5154792;27;19922;-45
2022/11/29 01:46:23;;;;;;;;;;;8.80;99.90;;;;;;5154663;27;19950;-43
2022/11/29 01:48:50;;;;;;;;;;;8.80;99.90;;;;;;5153836;27;19958;-40
2022/11/29 01:51:16;;;;;;;;;;;8.80;99.90;;;;;;5154599;27;20330;-41
2022/11/29 01:53:41;;;;;;;;;;;8.80;99.90;;;;;;5154779;27;19981;-42
2022/11/29 01:56:07;;;;;;;;;;;8.80;99.90;;;;;;5153753;27;19907;-41
2022/11/29 01:58:33;;;;;;;;;;;8.80;99.90;;;;;;5154592;27;19915;-42
2022/11/29 02:00:59;;;;;;;;;;;8.80;99.90;;;;;;5154722;27;19907;-42
2022/11/29 02:03:25;;;;;;;;;;;8.80;99.90;;;;;;5153075;27;19911;-43
2022/11/29 02:05:51;;;;;;;;;;;8.80;99.90;;;;;;5154395;27;19913;-40
2022/11/29 02:08:35;;;;;;;;;;;8.80;99.90;;;;;;5154464;27;20011;-42
2022/11/29 02:11:19;;;;;;;;;;;8.80;99.90;;;;;;5154363;27;19911;-41
2022/11/29 02:14:03;;;;;;;;;;;8.80;99.90;;;;;;5154266;27;19907;-41
2022/11/29 02:16:31;;;;;;;;;;;8.80;99.90;;;;;;5153454;27;19956;-41
2022/11/29 02:19:08;;;;;;;;;;;8.80;99.90;;;;;;5153855;27;19918;-41
2022/11/29 02:21:39;;;;;;;;;;;8.80;99.90;;;;;;5156054;27;19951;-42
2022/11/29 02:24:13;;;;;;;;;;;8.70;99.90;;;;;;5157858;27;19936;-42
2022/11/29 02:26:57;;;;;;;;;;;8.70;99.90;;;;;;5158212;27;19919;-42
2022/11/29 02:29:29;;;;;;;;;;;8.70;99.90;;;;;;5158445;27;20385;-42
2022/11/29 02:32:12;;;;;;;;;;;8.80;99.90;;;;;;5157584;27;19911;-41
2022/11/29 02:35:02;;;;;;;;;;;8.70;99.90;;;;;;5158448;27;19930;-41
2022/11/29 02:37:33;;;;;;;;;;;8.80;99.90;;;;;;5157635;27;19915;-42
2022/11/29 02:40:11;;;;;;;;;;;8.80;99.90;;;;;;5158190;27;19907;-42
2022/11/29 02:42:50;;;;;;;;;;;8.80;99.90;;;;;;5158331;27;19985;-41
2022/11/29 02:45:22;;;;;;;;;;;8.80;99.90;;;;;;5157026;27;19960;-41
2022/11/29 02:47:54;;;;;;;;;;;8.70;99.90;;;;;;5157539;27;20194;-41
2022/11/29 02:50:22;;;;;;;;;;;8.70;99.90;;;;;;5158028;27;20258;-42
2022/11/29 02:52:59;;;;;;;;;;;8.80;99.90;;;;;;5157185;27;19926;-41
2022/11/29 02:55:31;;;;;;;;;;;8.70;99.90;;;;;;5158176;27;19952;-42
2022/11/29 02:58:08;;;;;;;;;;;8.70;99.90;;;;;;5156964;27;20040;-42
2022/11/29 03:00:37;;;;;;;;;;;8.70;99.90;;;;;;5157957;27;20273;-42
2022/11/29 03:03:08;;;;;;;;;;;8.70;99.90;;;;;;5157840;27;19975;-41
2022/11/29 03:05:40;;;;;;;;;;;8.70;99.90;;;;;;5157197;27;20009;-42
2022/11/29 03:08:21;;;;;;;;;;;8.70;99.90;;;;;;5157576;27;19907;-42
2022/11/29 03:10:46;;;;;;;;;;;8.70;99.90;;;;;;5157687;27;19942;-41
2022/11/29 03:13:18;;;;;;;;;;;8.70;99.90;;;;;;5157108;27;19939;-41
2022/11/29 03:15:48;;;;;;;;;;;8.70;99.90;;;;;;5157559;27;19911;-42
2022/11/29 03:18:32;;;;;;;;;;;8.70;99.90;;;;;;5156623;27;20373;-41
2022/11/29 03:21:06;;;;;;;;;;;8.70;99.90;;;;;;5156658;27;19907;-41
2022/11/29 03:23:35;;;;;;;;;;;8.60;99.90;;;;;;5157554;27;19907;-41
2022/11/29 03:26:14;;;;;;;;;;;8.60;99.90;;;;;;5156517;27;19915;-42
2022/11/29 03:29:06;;;;;;;;;;;8.60;99.90;;;;;;5157243;27;20373;-42
2022/11/29 03:31:41;;;;;;;;;;;8.60;99.90;;;;;;5151942;27;19907;-42
2022/11/29 03:34:12;;;;;;;;;;;8.60;99.90;;;;;;5156464;27;19976;-41
2022/11/29 03:36:38;;;;;;;;;;;8.60;99.90;;;;;;5157187;27;19950;-42
2022/11/29 03:39:04;;;;;;;;;;;8.60;99.90;;;;;;5157112;27;19954;-42
2022/11/29 03:41:42;;;;;;;;;;;8.60;99.90;;;;;;5156330;27;19942;-42
2022/11/29 03:44:11;;;;;;;;;;;8.60;99.90;;;;;;5156986;27;19907;-41
2022/11/29 03:46:43;;;;;;;;;;;8.60;99.90;;;;;;5156894;27;19914;-41
2022/11/29 03:49:12;;;;;;;;;;;8.60;99.90;;;;;;5155935;27;20002;-41
2022/11/29 03:51:37;;;;;;;;;;;8.60;99.90;;;;;;5156213;27;20362;-41
2022/11/29 03:54:08;;;;;;;;;;;8.60;99.90;;;;;;5156006;27;19918;-42
2022/11/29 03:56:35;;;;;;;;;;;8.60;99.90;;;;;;5156762;27;20038;-41
2022/11/29 03:59:00;;;;;;;;;;;8.60;99.90;;;;;;5156660;27;20123;-42
2022/11/29 04:01:35;;;;;;;;;;;8.60;99.90;;;;;;5156073;27;20057;-41
2022/11/29 04:04:18;;;;;;;;;;;8.60;99.90;;;;;;5156735;27;19918;-41
2022/11/29 04:07:02;;;;;;;;;;;8.60;99.90;;;;;;5156573;27;20009;-41
2022/11/29 04:09:37;;;;;;;;;;;8.60;99.90;;;;;;5155631;27;19907;-41
2022/11/29 04:12:07;;;;;;;;;;;8.60;99.90;;;;;;5156455;27;20034;-41
2022/11/29 04:14:46;;;;;;;;;;;8.60;99.90;;;;;;5156523;27;19907;-41
2022/11/29 04:17:11;;;;;;;;;;;8.50;99.90;;;;;;5155285;27;19915;-42
2022/11/29 04:19:39;;;;;;;;;;;8.40;99.90;;;;;;5156208;27;19967;-41
2022/11/29 04:22:11;;;;;;;;;;;8.40;99.90;;;;;;5155432;27;19950;-41
2022/11/29 04:25:15;;;;;;;;;;;8.40;99.90;;;;;;5156319;27;19908;-40
2022/11/29 04:27:48;;;;;;;;;;;8.40;99.90;;;;;;5051587;28;19915;-43
2022/11/29 04:30:13;;;;;;;;;;;8.30;99.90;;;;;;5051166;28;19917;-41
2022/11/29 04:32:39;;;;;;;;;;;8.30;99.90;;;;;;5094517;27;19960;-40
2022/11/29 04:35:23;;;;;;;;;;;8.30;99.90;;;;;;5135287;27;19932;-41
2022/11/29 04:37:54;;;;;;;;;;;8.20;99.90;;;;;;5134447;27;19919;-41
2022/11/29 04:40:29;;;;;;;;;;;8.20;99.90;;;;;;5135143;27;19943;-40
2022/11/29 04:43:13;;;;;;;;;;;8.20;99.90;;;;;;5135202;27;19907;-43
2022/11/29 04:45:52;;;;;;;;;;;8.20;99.90;;;;;;5134625;27;19915;-42
2022/11/29 04:48:18;;;;;;;;;;;8.20;99.90;;;;;;5150572;27;19907;-41
2022/11/29 04:50:58;;;;;;;;;;;8.10;99.90;;;;;;5154901;27;19911;-41
2022/11/29 04:53:26;;;;;;;;;;;8.20;99.90;;;;;;5155530;27;19958;-41
2022/11/29 04:55:59;;;;;;;;;;;8.10;99.90;;;;;;5155480;27;20270;-41
2022/11/29 04:58:34;;;;;;;;;;;8.20;99.90;;;;;;5154900;27;19958;-41
2022/11/29 05:01:11;;;;;;;;;;;8.10;99.90;;;;;;5155420;27;19929;-41
2022/11/29 05:03:48;;;;;;;;;;;8.20;99.90;;;;;;5155477;27;19907;-41
2022/11/29 05:06:16;;;;;;;;;;;8.20;99.90;;;;;;5154707;27;19911;-42
2022/11/29 05:08:45;;;;;;;;;;;8.20;99.90;;;;;;5155380;27;19911;-41
2022/11/29 05:11:21;;;;;;;;;;;8.10;99.90;;;;;;5155312;27;19907;-41
2022/11/29 05:13:53;;;;;;;;;;;8.20;99.90;;;;;;5155367;27;19914;-41
2022/11/29 05:16:21;;;;;;;;;;;8.20;99.90;;;;;;5154924;27;19949;-40
2022/11/29 05:18:46;;;;;;;;;;;8.20;99.90;;;;;;5154426;27;19911;-41
2022/11/29 05:21:15;;;;;;;;;;;8.20;99.90;;;;;;5155261;27;20252;-42
2022/11/29 05:23:51;;;;;;;;;;;8.20;99.90;;;;;;5154988;27;20012;-41
2022/11/29 05:26:30;;;;;;;;;;;8.20;99.90;;;;;;5153935;27;19911;-40
2022/11/29 05:28:58;;;;;;;;;;;8.20;99.90;;;;;;5154975;27;19907;-41
2022/11/29 05:31:24;;;;;;;;;;;8.20;99.90;;;;;;5155073;27;19911;-40
2022/11/29 05:33:57;;;;;;;;;;;8.20;99.90;;;;;;5154127;27;19967;-41
2022/11/29 05:36:42;;;;;;;;;;;8.10;99.90;;;;;;5154679;27;19942;-42
2022/11/29 05:39:25;;;;;;;;;;;8.10;99.90;;;;;;5153900;27;19962;-42
2022/11/29 05:41:51;;;;;;;;;;;8.10;99.90;;;;;;5151093;27;19934;-40
2022/11/29 05:44:35;;;;;;;;;;;8.10;99.90;;;;;;5153283;27;20358;-42
2022/11/29 05:47:02;;;;;;;;;;;8.10;99.90;;;;;;5151640;27;19923;-40
2022/11/29 05:49:49;;;;;;;;;;;8.10;99.90;;;;;;5153245;27;19907;-42
2022/11/29 05:52:20;;;;;;;;;;;8.00;99.90;;;;;;5150582;27;19960;-40
2022/11/29 05:54:55;;;;;;;;;;;8.00;99.90;;;;;;5153350;27;19951;-40
2022/11/29 05:57:29;;;;;;;;;;;8.00;99.90;;;;;;5153640;27;20006;-39
2022/11/29 05:59:56;;;;;;;;;;;8.00;99.90;;;;;;5154503;27;19914;-41
2022/11/29 06:02:21;;;;;;;;;;;8.00;99.90;;;;;;5153736;27;20235;-40
2022/11/29 06:05:07;;;;;;;;;;;7.90;99.90;;;;;;5154188;27;19914;-40
2022/11/29 06:07:51;;;;;;;;;;;8.00;99.90;;;;;;5142726;27;19907;-44
2022/11/29 06:10:18;;;;;;;;;;;7.90;99.90;;;;;;5154445;27;19913;-41
2022/11/29 06:12:55;;;;;;;;;;;7.90;99.90;;;;;;5154344;27;19938;-42
2022/11/29 06:15:24;;;;;;;;;;;7.90;99.90;;;;;;5152816;27;19958;-40
2022/11/29 06:17:58;;;;;;;;;;;7.90;99.90;;;;;;5153664;27;19919;-41
2022/11/29 06:20:42;;;;;;;;;;;7.90;99.90;;;;;;5154700;27;19908;-42
2022/11/29 06:23:14;;;;;;;;;;;7.90;99.90;;;;;;5153475;27;20277;-40
2022/11/29 06:25:52;;;;;;;;;;;7.90;99.90;;;;;;5154261;27;20129;-41
2022/11/29 06:28:17;;;;;;;;;;;7.90;99.90;;;;;;5154206;27;19911;-41
2022/11/29 06:31:15;;;;;;;;;;;7.90;99.90;;;;;;5153350;27;19911;-41
2022/11/29 06:33:40;;;;;;;;;;;7.90;99.90;;;;;;5092149;27;19911;-42
2022/11/29 06:36:18;;;;;;;;;;;7.90;99.90;;;;;;5152470;27;19967;-41
2022/11/29 06:38:44;;;;;;;;;;;7.90;99.90;;;;;;5153192;27;19926;-40
2022/11/29 06:41:14;;;;;;;;;;;7.90;99.90;;;;;;5153891;27;19930;-40
2022/11/29 06:43:40;;;;;;;;;;;7.90;99.90;;;;;;5153147;27;19946;-40
2022/11/29 06:46:14;;;;;;;;;;;7.80;99.90;;;;;;5153630;27;19957;-42
2022/11/29 06:48:58;;;;;;;;;;;7.90;99.90;;;;;;5145053;27;19919;-41
2022/11/29 06:51:28;;;;;;;;;;;7.90;99.90;;;;;;5152777;27;19915;-40
2022/11/29 06:54:00;;;;;;;;;;;7.90;99.90;;;;;;5153745;27;20369;-41
2022/11/29 06:56:31;;;;;;;;;;;7.90;99.90;;;;;;5153835;27;19914;-42
2022/11/29 06:58:59;;;;;;;;;;;7.90;99.90;;;;;;5153176;27;20149;-42
2022/11/29 07:01:40;;;;;;;;;;;7.90;99.90;;;;;;5153929;27;20403;-42
2022/11/29 07:04:24;;;;;;;;;;;7.90;99.90;;;;;;5151995;27;20361;-41
2022/11/29 07:06:50;;;;;;;;;;;7.90;99.90;;;;;;5153867;27;20004;-42
2022/11/29 07:09:17;;;;;;;;;;;7.90;99.90;;;;;;5157686;27;19911;-40
2022/11/29 07:11:43;;;;;;;;;;;7.90;99.90;;;;;;5156690;27;20248;-41
2022/11/29 07:14:09;;;;;;;;;;;7.90;99.90;;;;;;5156948;27;19911;-41
2022/11/29 07:16:46;;;;;;;;;;;7.90;99.90;;;;;;5156617;27;19919;-40
2022/11/29 07:19:23;;;;;;;;;;;7.90;99.90;;;;;;5156639;27;19918;-42
2022/11/29 07:21:54;;;;;;;;;;;7.90;99.90;;;;;;5157315;27;20405;-40
2022/11/29 07:24:30;;;;;;;;;;;7.90;99.90;;;;;;5157382;27;19907;-41
2022/11/29 07:26:56;;;;;;;;;;;7.90;99.90;;;;;;5156379;27;19907;-42
2022/11/29 07:29:38;;;;;;;;;;;7.90;99.90;;;;;;5157288;27;20357;-42
2022/11/29 07:32:04;;;;;;;;;;;7.90;99.90;;;;;;5156201;27;19911;-40
2022/11/29 07:34:48;;;;;;;;;;;7.90;99.90;;;;;;5157257;27;19994;-41
2022/11/29 07:37:43;;;;;;;;;;;7.90;99.90;;;;;;5157316;27;20426;-42
2022/11/29 07:40:13;;;;;;;;;;;7.90;99.90;;;;;;5131808;27;20009;-41
2022/11/29 07:42:44;;;;;;;;;;;7.90;99.90;;;;;;5155081;27;19907;-41
2022/11/29 07:45:21;;;;;;;;;;;7.90;99.90;;;;;;5156107;27;19959;-41
2022/11/29 07:47:48;;;;;;;;;;;7.90;99.90;;;;;;5156064;27;19915;-43
2022/11/29 07:50:13;;;;;;;;;;;8.00;99.90;;;;;;5156261;27;19991;-43
2022/11/29 07:52:39;;;;;;;;;;;7.90;99.90;;;;;;5155728;27;20381;-42
2022/11/29 07:55:05;;;;;;;;;;;8.00;99.90;;;;;;5155114;27;20013;-41
2022/11/29 07:57:30;;;;;;;;;;;8.00;99.90;;;;;;5155723;27;19922;-41
2022/11/29 07:59:55;;;;;;;;;;;8.00;99.90;;;;;;5155797;27;20305;-40
2022/11/29 08:02:27;;;;;;;;;;;8.00;99.90;;;;;;5155209;27;19914;-42
2022/11/29 08:04:53;;;;;;;;;;;8.00;99.90;;;;;;5155715;27;19907;-42
2022/11/29 08:07:18;;;;;;;;;;;8.00;99.90;;;;;;5154834;27;19907;-39
2022/11/29 08:09:44;;;;;;;;;;;8.00;99.90;;;;;;5155707;27;19950;-40
2022/11/29 08:12:09;;;;;;;;;;;8.00;99.90;;;;;;5155576;27;20365;-41
2022/11/29 08:14:35;;;;;;;;;;;8.00;99.90;;;;;;5154737;27;19990;-41
2022/11/29 08:17:00;;;;;;;;;;;8.00;99.90;;;;;;5155393;27;19919;-40
2022/11/29 08:19:26;;;;;;;;;;;8.00;99.90;;;;;;5154545;27;19911;-41
2022/11/29 08:21:51;;;;;;;;;;;8.00;99.90;;;;;;5154699;27;19907;-41
2022/11/29 08:24:17;;;;;;;;;;;8.00;99.90;;;;;;5155425;27;19911;-40
2022/11/29 08:26:42;;;;;;;;;;;8.00;99.90;;;;;;5155282;27;20274;-40
2022/11/29 08:29:08;;;;;;;;;;;8.00;99.90;;;;;;5154394;27;19911;-44
2022/11/29 08:31:33;;;;;;;;;;;8.00;99.90;;;;;;5155330;27;20289;-40
2022/11/29 08:33:59;;;;;;;;;;;8.00;99.90;;;;;;5155118;27;19907;-40
2022/11/29 08:36:24;;;;;;;;;;;8.00;99.90;;;;;;5154381;27;19943;-41
2022/11/29 08:38:50;;;;;;;;;;;8.00;99.90;;;;;;5154949;27;19912;-41
2022/11/29 08:41:15;;;;;;;;;;;8.00;99.90;;;;;;5155041;27;20377;-41
2022/11/29 08:43:41;;;;;;;;;;;8.00;99.90;;;;;;5154163;27;19932;-40
2022/11/29 08:46:07;;;;;;;;;;;8.00;99.90;;;;;;5154060;27;19919;-41
2022/11/29 08:48:32;;;;;;;;;;;8.00;99.90;;;;;;5154006;27;19942;-41
2022/11/29 08:50:58;;;;;;;;;;;8.10;99.90;;;;;;5153055;27;20430;-40
2022/11/29 08:53:43;;;;;;;;;;;8.10;99.90;;;;;;5153715;27;19923;-42
2022/11/29 08:56:13;;;;;;;;;;;8.10;99.90;;;;;;5153496;27;20280;-42
2022/11/29 08:58:38;;;;;;;;;;;8.10;99.90;;;;;;5153303;27;19922;-40
2022/11/29 09:01:05;;;;;;;;;;;8.10;99.90;;;;;;5154005;27;19915;-41
2022/11/29 09:06:15;;;;;;;;;;;8.10;99.90;;;;;;5152043;27;19963;-42
2022/11/29 09:08:42;;;;;;;;;;;8.10;99.90;;;;;;5153888;27;20361;-41
2022/11/29 09:11:18;;;;;;;;;;;8.20;99.90;;;;;;5150539;27;19915;-43
2022/11/29 09:13:45;;;;;;;;;;;8.20;99.90;;;;;;5155304;27;19918;-42
2022/11/29 09:16:12;;;;;;;;;;;8.20;99.90;;;;;;5155936;27;20373;-41
2022/11/29 09:18:38;;;;;;;;;;;8.20;99.90;;;;;;5148428;27;20394;-41
2022/11/29 09:21:05;;;;;;;;;;;8.30;99.90;;;;;;5152983;27;19999;-42
2022/11/29 09:23:31;;;;;;;;;;;8.30;99.90;;;;;;5152649;27;19907;-40
2022/11/29 09:25:56;;;;;;;;;;;8.30;99.90;;;;;;5153246;27;19914;-41
2022/11/29 09:28:22;;;;;;;;;;;8.30;99.90;;;;;;5154742;27;19907;-40
2022/11/29 09:30:49;;;;;;;;;;;8.40;99.90;;;;;;5154110;27;20377;-40
2022/11/29 09:33:15;;;;;;;;;;;8.40;99.90;;;;;;5153919;27;19910;-40
2022/11/29 09:35:41;;;;;;;;;;;8.40;99.90;;;;;;5154693;27;19907;-41
2022/11/29 09:38:09;;;;;;;;;;;8.40;99.90;;;;;;5154354;27;19919;-40
2022/11/29 09:40:41;;;;;;;;;;;8.40;99.90;;;;;;5153653;27;20461;-40
2022/11/29 09:43:09;;;;;;;;;;;8.50;99.90;;;;;;5155085;27;19911;-40
2022/11/29 09:45:36;;;;;;;;;;;8.50;99.90;;;;;;5154652;27;20414;-41
2022/11/29 09:48:02;;;;;;;;;;;8.50;99.90;;;;;;5154607;27;20348;-41
2022/11/29 09:50:32;;;;;;;;;;;8.50;99.90;;;;;;5154504;27;19954;-40
2022/11/29 09:53:16;;;;;;;;;;;8.50;99.90;;;;;;5153496;27;20007;-41
2022/11/29 09:55:54;;;;;;;;;;;8.50;99.90;;;;;;5154494;27;19907;-42
2022/11/29 09:58:22;;;;;;;;;;;8.50;99.90;;;;;;5154588;27;19915;-40
2022/11/29 10:00:49;;;;;;;;;;;8.50;99.90;;;;;;5153595;27;19907;-41
2022/11/29 10:03:24;;;;;;;;;;;8.60;99.90;;;;;;5154206;27;19911;-42
2022/11/29 10:05:56;;;;;;;;;;;8.60;99.90;;;;;;5154295;27;19933;-40
2022/11/29 10:08:42;;;;;;;;;;;8.70;99.90;;;;;;5153843;27;19907;-41
2022/11/29 10:11:08;;;;;;;;;;;8.70;99.90;;;;;;5154335;27;20006;-42
2022/11/29 10:13:34;;;;;;;;;;;8.70;99.90;;;;;;5154190;27;19938;-41
2022/11/29 10:16:05;;;;;;;;;;;8.80;99.90;;;;;;5153575;27;20358;-40
2022/11/29 10:18:37;;;;;;;;;;;8.80;99.90;;;;;;5154697;27;19915;-42
2022/11/29 10:21:10;;;;;;;;;;;8.80;99.90;;;;;;5154361;27;19968;-42
2022/11/29 10:23:37;;;;;;;;;;;8.80;99.90;;;;;;5155014;27;19915;-41
2022/11/29 10:26:06;;;;;;;;;;;8.80;99.90;;;;;;5154571;27;19911;-41
2022/11/29 10:28:33;;;;;;;;;;;8.80;99.90;;;;;;5154434;27;20425;-43
2022/11/29 10:31:01;;;;;;;;;;;8.80;99.90;;;;;;5154814;27;19950;-40
2022/11/29 10:33:28;;;;;;;;;;;8.80;99.90;;;;;;5154767;27;19913;-41
2022/11/29 10:35:55;;;;;;;;;;;8.80;99.90;;;;;;5154349;27;19911;-42
2022/11/29 10:38:22;;;;;;;;;;;8.80;99.90;;;;;;5154784;27;20400;-40
2022/11/29 10:40:50;;;;;;;;;;;8.80;99.90;;;;;;5154704;27;20455;-42
2022/11/29 10:43:15;;;;;;;;;;;8.80;99.90;;;;;;5156919;27;20389;-42
2022/11/29 11:10:28;;;;;;;;;;;8.90;99.90;;;;;;5131161;27;19919;-40
2022/11/29 11:13:00;;;;;;;;;;;8.80;99.90;;;;;;5131810;27;19912;-42
2022/11/29 11:15:27;;;;;;;;;;;8.80;99.90;;;;;;5131498;27;19907;-40
2022/11/29 11:17:54;;;;;;;;;;;8.80;99.90;;;;;;5130857;27;19916;-40
2022/11/29 11:20:22;;;;;;;;;;;8.80;99.90;;;;;;5131597;27;19908;-41
2022/11/29 11:22:59;;;;;;;;;;;8.80;99.90;;;;;;5131412;27;20369;-40
2022/11/29 11:25:27;;;;;;;;;;;8.80;99.90;;;;;;5130805;28;19994;-40
2022/11/29 11:27:53;;;;;;;;;;;8.80;99.90;;;;;;5131456;27;19908;-42
2022/11/29 11:30:23;;;;;;;;;;;8.80;99.90;;;;;;5131399;27;19908;-42
2022/11/29 11:33:06;;;;;;;;;;;8.80;99.90;;;;;;5130881;27;19983;-41
2022/11/29 11:35:32;;;;;;;;;;;8.80;99.90;;;;;;5130824;27;19965;-41
2022/11/29 11:37:57;;;;;;;;;;;8.80;99.90;;;;;;5130686;27;19923;-41
2022/11/29 11:40:25;;;;;;;;;;;8.80;99.90;;;;;;5130579;27;19908;-42
2022/11/29 11:42:50;;;;;;;;;;;8.80;99.90;;;;;;5131105;27;19939;-40
2022/11/29 11:45:16;;;;;;;;;;;8.90;99.90;;;;;;5129760;27;19965;-41
2022/11/29 11:47:55;;;;;;;;;;;8.90;99.90;;;;;;5131132;27;19965;-40
2022/11/29 11:50:27;;;;;;;;;;;8.90;99.90;;;;;;5129787;27;19998;-40
2022/11/29 11:52:53;;;;;;;;;;;8.90;99.90;;;;;;5130643;27;19954;-41
2022/11/29 11:55:26;;;;;;;;;;;8.90;99.90;;;;;;5130880;27;19947;-41
2022/11/29 11:57:58;;;;;;;;;;;8.90;99.90;;;;;;5130848;27;20304;-40
2022/11/29 12:00:40;;;;;;;;;;;8.90;99.90;;;;;;5130180;27;19908;-41
2022/11/29 12:03:18;;;;;;;;;;;9.00;99.90;;;;;;5130615;27;19907;-41
2022/11/29 12:05:45;;;;;;;;;;;9.00;99.90;;;;;;5130640;27;19951;-41
2022/11/29 12:08:11;;;;;;;;;;;9.00;99.90;;;;;;5129721;27;19984;-41
2022/11/29 12:10:38;;;;;;;;;;;9.00;99.90;;;;;;5120417;27;20331;-42
2022/11/29 12:13:04;;;;;;;;;;;9.00;99.90;;;;;;5116953;28;19935;-42
2022/11/29 12:15:37;;;;;;;;;;;9.10;99.90;;;;;;5116316;28;20313;-42
2022/11/29 12:18:05;;;;;;;;;;;9.10;99.90;;;;;;5116917;28;19916;-40
2022/11/29 12:20:47;;;;;;;;;;;9.10;99.90;;;;;;5116041;28;19923;-40
2022/11/29 12:23:13;;;;;;;;;;;9.10;99.90;;;;;;5116980;28;20315;-44
2022/11/29 12:25:48;;;;;;;;;;;9.20;99.90;;;;;;5116808;28;19908;-42
2022/11/29 12:28:15;;;;;;;;;;;9.20;99.90;;;;;;5115933;28;20352;-40
2022/11/29 12:30:46;;;;;;;;;;;9.20;99.90;;;;;;5116699;28;19961;-42
2022/11/29 12:33:23;;;;;;;;;;;9.20;99.90;;;;;;5115667;28;20010;-41
2022/11/29 12:35:57;;;;;;;;;;;9.30;99.90;;;;;;5115881;28;19955;-41
2022/11/29 12:38:38;;;;;;;;;;;9.30;99.90;;;;;;5115910;28;19926;-43
2022/11/29 12:41:03;;;;;;;;;;;9.30;99.90;;;;;;5115832;27;19912;-41
2022/11/29 12:43:32;;;;;;;;;;;9.40;99.90;;;;;;5115090;28;19918;-43
2022/11/29 12:45:57;;;;;;;;;;;9.40;99.90;;;;;;5116296;28;19950;-42
2022/11/29 12:48:32;;;;;;;;;;;9.40;99.90;;;;;;5115606;28;20422;-43
2022/11/29 12:51:10;;;;;;;;;;;9.40;99.90;;;;;;5116044;28;19908;-41
2022/11/29 12:53:41;;;;;;;;;;;9.40;99.90;;;;;;5116098;28;20444;-42
2022/11/29 12:56:25;;;;;;;;;;;9.40;99.90;;;;;;5115344;28;20446;-41
2022/11/29 12:59:14;;;;;;;;;;;9.40;99.90;;;;;;5116042;28;19973;-41
2022/11/29 13:01:50;;;;;;;;;;;9.50;99.90;;;;;;5115980;28;20408;-41
2022/11/29 13:04:38;;;;;;;;;;;9.50;99.90;;;;;;5115323;28;19908;-40
2022/11/29 13:07:22;;;;;;;;;;;9.50;99.90;;;;;;5114816;28;19918;-41
2022/11/29 13:09:53;;;;;;;;;;;9.50;99.90;;;;;;5114995;28;19919;-42
2022/11/29 13:12:18;;;;;;;;;;;9.50;99.90;;;;;;5115487;28;19916;-42
2022/11/29 13:15:02;;;;;;;;;;;9.50;99.90;;;;;;5115645;28;20320;-42
2022/11/29 13:17:33;;;;;;;;;;;9.50;99.90;;;;;;5114593;28;20006;-42
2022/11/29 13:20:07;;;;;;;;;;;9.60;99.90;;;;;;5104419;28;19980;-44
2022/11/29 13:22:47;;;;;;;;;;;9.60;99.90;;;;;;5114318;28;19947;-42
2022/11/29 13:25:15;;;;;;;;;;;9.60;99.90;;;;;;5114920;28;19908;-41
2022/11/29 13:27:45;;;;;;;;;;;9.60;99.90;;;;;;5115375;28;19914;-42
2022/11/29 13:30:14;;;;;;;;;;;9.60;99.90;;;;;;5115393;28;19953;-42
2022/11/29 13:33:02;;;;;;;;;;;9.60;99.90;;;;;;5114795;28;19914;-42
2022/11/29 13:35:36;;;;;;;;;;;9.70;99.90;;;;;;5115245;28;20361;-41
2022/11/29 13:38:06;;;;;;;;;;;9.70;99.90;;;;;;5114495;28;19920;-42
2022/11/29 13:40:50;;;;;;;;;;;9.70;99.90;;;;;;5115144;28;19908;-41
2022/11/29 13:43:34;;;;;;;;;;;9.70;99.90;;;;;;5114521;28;19927;-41
2022/11/29 13:46:08;;;;;;;;;;;9.70;99.90;;;;;;5114325;28;19912;-41
2022/11/29 13:48:45;;;;;;;;;;;9.70;99.90;;;;;;5114847;28;19908;-42
2022/11/29 13:51:20;;;;;;;;;;;9.70;99.90;;;;;;5114467;28;19912;-42
2022/11/29 13:53:46;;;;;;;;;;;9.70;99.90;;;;;;5114111;27;19926;-41
2022/11/29 13:56:24;;;;;;;;;;;9.60;99.90;;;;;;5114683;27;19907;-41
2022/11/29 13:58:53;;;;;;;;;;;9.60;99.90;;;;;;5114347;28;19937;-42
2022/11/29 14:01:20;;;;;;;;;;;9.60;99.90;;;;;;5114275;28;19934;-41
2022/11/29 14:03:59;;;;;;;;;;;9.60;99.90;;;;;;5114706;28;19908;-43
2022/11/29 14:06:32;;;;;;;;;;;9.60;99.90;;;;;;5114046;28;19908;-41
2022/11/29 14:09:12;;;;;;;;;;;9.50;99.90;;;;;;5114252;28;19920;-42
2022/11/29 14:11:40;;;;;;;;;;;9.50;99.90;;;;;;5114521;28;19919;-42
2022/11/29 14:14:17;;;;;;;;;;;9.40;99.90;;;;;;5113997;28;19915;-42
2022/11/29 14:16:43;;;;;;;;;;;9.40;99.90;;;;;;5114525;27;19907;-42
2022/11/29 14:19:11;;;;;;;;;;;9.40;99.90;;;;;;5114217;28;19960;-42
2022/11/29 14:22:00;;;;;;;;;;;9.40;99.90;;;;;;5113894;28;19912;-42
2022/11/29 14:24:35;;;;;;;;;;;9.40;99.90;;;;;;5108478;28;20353;-43
2022/11/29 14:27:11;;;;;;;;;;;9.30;99.90;;;;;;5113933;28;19915;-41
2022/11/29 14:29:49;;;;;;;;;;;9.30;99.90;;;;;;5114276;28;19907;-42
2022/11/29 14:32:26;;;;;;;;;;;9.30;99.90;;;;;;5114059;28;19908;-41
2022/11/29 14:34:53;;;;;;;;;;;9.30;99.90;;;;;;5113833;27;19908;-43
2022/11/29 14:37:38;;;;;;;;;;;9.30;99.90;;;;;;5114156;28;19911;-42
2022/11/29 14:40:14;;;;;;;;;;;9.20;99.90;;;;;;5114135;28;19915;-42
2022/11/29 14:42:44;;;;;;;;;;;9.20;99.90;;;;;;5113457;28;20359;-41
2022/11/29 14:45:20;;;;;;;;;;;9.20;99.90;;;;;;5114178;28;19908;-42
2022/11/29 14:47:49;;;;;;;;;;;9.20;99.90;;;;;;5113770;28;20343;-41
2022/11/29 14:50:29;;;;;;;;;;;9.20;99.90;;;;;;5113444;28;19908;-42
2022/11/29 14:52:55;;;;;;;;;;;9.10;99.90;;;;;;5114094;28;19994;-42
2022/11/29 14:55:20;;;;;;;;;;;9.00;99.90;;;;;;5113335;28;19954;-42
2022/11/29 14:57:46;;;;;;;;;;;9.00;99.90;;;;;;5113743;28;20270;-40
2022/11/29 15:00:13;;;;;;;;;;;9.00;99.90;;;;;;5113959;28;20342;-42
2022/11/29 15:02:50;;;;;;;;;;;8.90;99.90;;;;;;5113481;28;19948;-41
2022/11/29 15:05:18;;;;;;;;;;;8.90;99.90;;;;;;5113409;28;19911;-40
2022/11/29 15:08:04;;;;;;;;;;;8.90;99.90;;;;;;5113920;28;19994;-42
2022/11/29 15:10:32;;;;;;;;;;;8.80;99.90;;;;;;5105274;28;19954;-42
2022/11/29 15:12:58;;;;;;;;;;;8.80;99.90;;;;;;5113494;28;19943;-42
2022/11/29 15:15:27;;;;;;;;;;;8.80;99.90;;;;;;5113569;28;20010;-42
2022/11/29 15:18:04;;;;;;;;;;;8.70;99.90;;;;;;5113334;28;19907;-41
2022/11/29 15:20:35;;;;;;;;;;;8.70;99.90;;;;;;5093372;28;19916;-42
2022/11/29 15:23:02;;;;;;;;;;;8.70;99.90;;;;;;5107692;28;19994;-43